Time;durP1;ratioP1;P1;durP2;ratioP2;P2;SDS_P1;SDS_P2;PMS_P1;PMS_P2;Temp;Humidity;BMP_temperature;BMP_pressure;BME280_temperature;BME280_humidity;BME280_pressure;Samples;Min_cycle;Max_cycle;Signal;HPM_P1;HPM_P2
2023/12/03 00:00:13;;;;;;;13.27;5.93;;;;;;;-3.22;100.00;100450.97;5047963;28;20084;-72
2023/12/03 00:02:42;;;;;;;12.07;4.95;;;;;;;-3.30;100.00;100440.66;5049404;28;20139;-71
2023/12/03 00:05:09;;;;;;;15.80;6.35;;;;;;;-3.34;100.00;100446.56;5040681;28;20060;-71
2023/12/03 00:07:36;;;;;;;14.32;6.80;;;;;;;-3.53;100.00;100441.16;5048102;28;20045;-72
2023/12/03 00:10:04;;;;;;;13.07;6.78;;;;;;;-3.63;100.00;100444.41;5044127;28;20049;-72
2023/12/03 00:12:30;;;;;;;16.48;8.40;;;;;;;-3.59;100.00;100447.88;5044986;28;20052;-72
2023/12/03 00:14:57;;;;;;;11.73;4.70;;;;;;;-3.50;100.00;100436.09;5045439;28;20045;-72
2023/12/03 00:17:25;;;;;;;12.23;5.20;;;;;;;-3.42;100.00;100441.31;5046694;28;20140;-72
2023/12/03 00:19:51;;;;;;;9.00;3.92;;;;;;;-3.37;100.00;100444.81;5046183;28;20122;-72
2023/12/03 00:22:18;;;;;;;10.40;3.92;;;;;;;-3.46;100.00;100426.75;5048156;28;20470;-72
2023/12/03 00:24:45;;;;;;;10.23;4.60;;;;;;;-3.34;100.00;100444.00;5042358;28;20049;-72
2023/12/03 00:27:12;;;;;;;10.32;4.30;;;;;;;-3.45;100.00;100431.91;5044023;28;20060;-72
2023/12/03 00:29:38;;;;;;;9.52;3.65;;;;;;;-3.44;100.00;100432.75;5042012;28;20207;-72
2023/12/03 00:32:05;;;;;;;10.13;4.18;;;;;;;-3.35;100.00;100439.72;5052815;28;20368;-72
2023/12/03 00:34:32;;;;;;;11.70;4.63;;;;;;;-3.39;100.00;100446.50;5045434;28;20523;-72
2023/12/03 00:36:59;;;;;;;11.55;5.00;;;;;;;-3.33;100.00;100436.34;5047470;28;20045;-72
2023/12/03 00:39:25;;;;;;;8.35;3.33;;;;;;;-3.26;100.00;100427.91;5048055;28;20094;-72
2023/12/03 00:41:52;;;;;;;11.88;3.45;;;;;;;-3.18;100.00;100430.56;5052472;28;20506;-71
2023/12/03 00:44:19;;;;;;;10.05;3.67;;;;;;;-3.14;100.00;100436.59;5049738;28;20041;-72
2023/12/03 00:46:45;;;;;;;8.63;3.17;;;;;;;-3.23;100.00;100432.22;5058105;28;20086;-72
2023/12/03 00:49:13;;;;;;;8.90;3.40;;;;;;;-3.12;100.00;100440.88;5057077;28;20810;-72
2023/12/03 00:51:39;;;;;;;9.45;3.33;;;;;;;-3.11;100.00;100437.50;5050246;28;20135;-72
2023/12/03 00:54:07;;;;;;;10.93;3.92;;;;;;;-3.19;100.00;100433.97;5055682;28;20127;-72
2023/12/03 00:56:34;;;;;;;10.05;4.03;;;;;;;-3.17;100.00;100434.88;5049354;28;20045;-72
2023/12/03 00:59:00;;;;;;;8.57;3.83;;;;;;;-3.16;100.00;100444.25;5056680;28;20065;-72
2023/12/03 01:01:27;;;;;;;7.45;2.95;;;;;;;-3.05;100.00;100439.28;5054438;28;20083;-72
2023/12/03 01:03:54;;;;;;;9.90;3.35;;;;;;;-2.97;100.00;100447.06;5050334;28;20082;-72
2023/12/03 01:06:21;;;;;;;6.85;2.67;;;;;;;-3.08;100.00;100409.38;5050203;28;20550;-71
2023/12/03 01:08:48;;;;;;;9.55;3.25;;;;;;;-2.82;100.00;100438.72;5037745;28;20490;-72
2023/12/03 01:11:14;;;;;;;7.47;3.10;;;;;;;-2.91;100.00;100427.50;5051871;28;20064;-72
2023/12/03 01:13:59;;;;;;;7.28;3.03;;;;;;;-2.77;100.00;100424.25;5038982;28;20049;-72
2023/12/03 01:16:26;;;;;;;6.80;2.42;;;;;;;-2.58;100.00;100428.75;5056522;28;20056;-72
2023/12/03 01:18:52;;;;;;;9.75;3.05;;;;;;;-2.54;100.00;100430.50;5051279;28;20049;-72
2023/12/03 01:21:19;;;;;;;6.60;2.70;;;;;;;-2.47;100.00;100425.44;5051682;28;20040;-71
2023/12/03 01:23:46;;;;;;;11.68;3.78;;;;;;;-2.39;100.00;100429.81;5043680;28;20037;-72
2023/12/03 01:26:13;;;;;;;10.43;4.25;;;;;;;-2.45;100.00;100431.44;5051524;28;20052;-72
2023/12/03 01:28:39;;;;;;;14.52;5.38;;;;;;;-2.66;100.00;100438.03;5039987;28;20355;-72
2023/12/03 01:31:06;;;;;;;9.18;3.90;;;;;;;-2.46;100.00;100422.91;5053555;28;20490;-72
2023/12/03 01:33:33;;;;;;;10.52;4.78;;;;;;;-2.55;100.00;100445.84;5050682;28;20056;-72
2023/12/03 01:36:00;;;;;;;9.50;4.00;;;;;;;-2.63;100.00;100440.66;5065407;28;20080;-72
2023/12/03 01:38:26;;;;;;;11.85;4.05;;;;;;;-2.56;100.00;100429.63;5065039;28;20054;-72
2023/12/03 01:40:54;;;;;;;8.07;3.80;;;;;;;-2.53;100.00;100441.63;5056530;28;20171;-72
2023/12/03 01:43:20;;;;;;;8.55;3.60;;;;;;;-2.51;100.00;100429.69;5053156;28;20049;-72
2023/12/03 01:45:47;;;;;;;8.23;3.08;;;;;;;-2.43;100.00;100434.88;5064815;28;20438;-72
2023/12/03 01:48:14;;;;;;;10.00;3.67;;;;;;;-2.45;100.00;100447.69;5057804;28;20054;-72
2023/12/03 01:50:42;;;;;;;10.57;4.50;;;;;;;-2.54;100.00;100450.16;5068787;28;20501;-72
2023/12/03 01:53:09;;;;;;;9.65;3.33;;;;;;;-2.49;100.00;100454.47;5063374;28;20431;-70
2023/12/03 01:55:36;;;;;;;9.00;3.38;;;;;;;-2.47;100.00;100439.13;5040955;28;20163;-71
2023/12/03 01:58:03;;;;;;;8.70;3.90;;;;;;;-2.62;100.00;100406.50;5052264;28;20057;-71
2023/12/03 02:00:32;;;;;;;8.82;3.42;;;;;;;-2.46;100.00;100434.84;5055620;28;20644;-71
2023/12/03 02:03:01;;;;;;;8.63;2.92;;;;;;;-2.38;100.00;100438.34;5047705;28;20077;-71
2023/12/03 02:05:28;;;;;;;9.25;3.63;;;;;;;-2.25;100.00;100460.69;5040987;28;20049;-71
2023/12/03 02:07:55;;;;;;;9.40;3.80;;;;;;;-2.18;100.00;100457.38;5038270;28;20148;-71
2023/12/03 02:10:23;;;;;;;10.38;3.33;;;;;;;-2.15;100.00;100447.13;5055363;28;20056;-72
2023/12/03 02:12:49;;;;;;;8.10;3.63;;;;;;;-2.09;100.00;100461.72;5054651;28;20402;-71
2023/12/03 02:15:16;;;;;;;8.32;3.20;;;;;;;-2.14;100.00;100446.31;5052294;28;20053;-72
2023/12/03 02:17:44;;;;;;;5.45;2.20;;;;;;;-2.07;100.00;100442.09;5061822;28;20140;-71
2023/12/03 02:20:11;;;;;;;6.47;2.47;;;;;;;-1.87;100.00;100454.25;5065291;28;20452;-71
2023/12/03 02:22:57;;;;;;;6.22;2.60;;;;;;;-1.85;100.00;100455.09;5055101;28;20049;-72
2023/12/03 02:25:24;;;;;;;8.23;3.13;;;;;;;-1.80;100.00;100456.88;5061669;28;20682;-71
2023/12/03 02:27:50;;;;;;;7.80;2.70;;;;;;;-1.81;100.00;100455.13;5051682;28;20063;-72
2023/12/03 02:30:17;;;;;;;8.18;2.90;;;;;;;-1.80;100.00;100461.16;5046211;28;20574;-72
2023/12/03 02:32:44;;;;;;;9.63;3.17;;;;;;;-1.84;100.00;100460.25;5048417;28;20055;-72
2023/12/03 02:35:11;;;;;;;7.60;2.70;;;;;;;-1.80;100.00;100441.47;5045141;28;20047;-72
2023/12/03 02:37:37;;;;;;;9.55;3.38;;;;;;;-1.73;100.00;100457.78;5050138;28;20056;-72
2023/12/03 02:40:06;;;;;;;8.13;3.08;;;;;;;-1.87;100.00;100449.09;5050767;28;20055;-72
2023/12/03 02:42:32;;;;;;;7.40;2.88;;;;;;;-1.72;100.00;100447.53;5053440;28;20076;-71
2023/12/03 02:44:59;;;;;;;6.13;2.30;;;;;;;-1.57;100.00;100462.19;5053170;28;20052;-72
2023/12/03 02:47:26;;;;;;;6.50;2.05;;;;;;;-1.58;100.00;100450.19;5064287;28;20055;-71
2023/12/03 02:49:52;;;;;;;7.88;2.78;;;;;;;-1.75;100.00;100457.75;5056173;28;20092;-71
2023/12/03 02:52:19;;;;;;;6.47;2.35;;;;;;;-1.76;100.00;100457.75;5058611;28;20052;-71
2023/12/03 02:54:46;;;;;;;6.20;2.40;;;;;;;-1.73;100.00;100450.94;5048077;28;20486;-72
2023/12/03 02:57:12;;;;;;;7.93;2.70;;;;;;;-1.74;100.00;100458.63;5045994;28;20053;-71
2023/12/03 02:59:39;;;;;;;6.82;2.70;;;;;;;-1.91;100.00;100430.25;5057584;28;20084;-71
2023/12/03 03:02:06;;;;;;;6.50;2.65;;;;;;;-1.73;100.00;100450.06;5055590;28;20041;-72
2023/12/03 03:04:32;;;;;;;5.95;2.45;;;;;;;-1.65;100.00;100457.81;5046578;28;20061;-71
2023/12/03 03:06:59;;;;;;;5.85;2.17;;;;;;;-1.77;100.00;100438.94;5047915;28;20100;-71
2023/12/03 03:09:26;;;;;;;5.55;2.10;;;;;;;-1.61;100.00;100455.31;5045091;28;20445;-71
2023/12/03 03:11:54;;;;;;;6.60;2.42;;;;;;;-1.75;100.00;100452.63;5063692;28;20059;-72
2023/12/03 03:14:21;;;;;;;7.32;2.83;;;;;;;-1.68;100.00;100458.69;5049972;28;20499;-72
2023/12/03 03:16:47;;;;;;;8.35;2.80;;;;;;;-1.64;100.00;100449.28;5056174;28;20045;-70
2023/12/03 03:19:14;;;;;;;7.15;2.72;;;;;;;-1.67;100.00;100447.53;5054117;28;20041;-72
2023/12/03 03:21:41;;;;;;;5.43;2.22;;;;;;;-1.69;100.00;100453.53;5049567;28;20045;-72
2023/12/03 03:24:08;;;;;;;4.88;2.00;;;;;;;-1.86;100.00;100423.47;5046705;28;20112;-72
2023/12/03 03:26:35;;;;;;;5.10;2.25;;;;;;;-1.55;100.00;100446.78;5046826;28;20044;-72
2023/12/03 03:29:02;;;;;;;9.10;3.05;;;;;;;-1.73;100.00;100427.81;5063948;28;20056;-72
2023/12/03 03:31:28;;;;;;;7.82;3.03;;;;;;;-1.71;100.00;100445.81;5060437;28;20058;-72
2023/12/03 03:33:55;;;;;;;6.65;2.15;;;;;;;-1.61;100.00;100446.72;5048670;28;20497;-71
2023/12/03 03:36:22;;;;;;;7.63;2.75;;;;;;;-1.58;100.00;100447.59;5042047;28;20053;-70
2023/12/03 03:38:50;;;;;;;6.82;2.65;;;;;;;-1.58;100.00;100444.19;5063208;28;20458;-72
2023/12/03 03:41:16;;;;;;;5.55;2.30;;;;;;;-1.75;100.00;100400.44;5051456;28;20132;-70
2023/12/03 03:43:43;;;;;;;10.45;3.75;;;;;;;-1.60;100.00;100421.06;5051024;28;20054;-70
2023/12/03 03:46:10;;;;;;;9.18;3.15;;;;;;;-1.49;100.00;100428.84;5063636;28;20049;-71
2023/12/03 03:48:37;;;;;;;8.85;3.38;;;;;;;-1.47;100.00;100434.88;5039329;28;20054;-72
2023/12/03 03:51:06;;;;;;;8.40;3.28;;;;;;;-1.66;100.00;100426.16;5046145;28;20045;-71
2023/12/03 03:53:33;;;;;;;8.35;3.10;;;;;;;-1.53;100.00;100401.44;5045382;28;20140;-71
2023/12/03 03:56:06;;;;;;;5.78;2.50;;;;;;;-1.41;100.00;100413.50;5042277;28;20053;-72
2023/12/03 03:58:32;;;;;;;5.60;2.55;;;;;;;-1.36;100.00;100406.69;5049480;28;20159;-72
2023/12/03 04:00:59;;;;;;;9.80;3.13;;;;;;;-1.45;100.00;100397.22;5056290;28;20723;-71
2023/12/03 04:03:26;;;;;;;8.52;4.00;;;;;;;-1.64;100.00;100423.63;5051642;28;20466;-71
2023/12/03 04:05:53;;;;;;;9.52;3.13;;;;;;;-1.68;100.00;100424.44;5063046;28;20063;-72
2023/12/03 04:08:19;;;;;;;9.45;3.13;;;;;;;-1.68;100.00;100416.72;5042257;28;20051;-71
2023/12/03 04:10:46;;;;;;;6.05;2.67;;;;;;;-1.76;100.00;100420.09;5060077;28;20048;-71
2023/12/03 04:13:13;;;;;;;8.27;2.33;;;;;;;-1.73;100.00;100420.13;5050833;28;20127;-71
2023/12/03 04:15:39;;;;;;;7.20;2.70;;;;;;;-1.74;100.00;100430.38;5051103;28;20554;-71
2023/12/03 04:18:06;;;;;;;6.32;2.50;;;;;;;-1.73;100.00;100414.13;5067522;28;20045;-71
2023/12/03 04:20:33;;;;;;;6.85;2.42;;;;;;;-1.82;100.00;100411.50;5062482;28;20061;-72
2023/12/03 04:23:01;;;;;;;5.97;2.33;;;;;;;-1.80;100.00;100414.94;5069407;28;20059;-71
2023/12/03 04:25:28;;;;;;;6.18;2.45;;;;;;;-1.66;100.00;100427.88;5042733;28;20044;-71
2023/12/03 04:27:55;;;;;;;6.93;2.88;;;;;;;-1.58;100.00;100431.34;5068780;28;20048;-71
2023/12/03 04:30:22;;;;;;;10.10;3.50;;;;;;;-1.66;100.00;100423.59;5070005;28;20053;-71
2023/12/03 04:32:48;;;;;;;7.88;3.10;;;;;;;-1.70;100.00;100421.84;5055495;28;20044;-71
2023/12/03 04:35:15;;;;;;;7.00;2.80;;;;;;;-1.56;100.00;100424.50;5044921;28;20341;-70
2023/12/03 04:37:42;;;;;;;7.45;2.85;;;;;;;-1.53;100.00;100412.56;5053796;28;20132;-70
2023/12/03 04:40:09;;;;;;;6.20;2.83;;;;;;;-1.58;100.00;100403.97;5057181;28;20064;-71
2023/12/03 04:42:36;;;;;;;7.63;2.80;;;;;;;-1.58;100.00;100411.66;5075420;28;20048;-71
2023/12/03 04:45:03;;;;;;;6.85;2.70;;;;;;;-1.58;100.00;100419.38;5066624;28;20055;-71
2023/12/03 04:47:30;;;;;;;8.30;3.72;;;;;;;-1.48;100.00;100411.75;5060179;28;20056;-71
2023/12/03 04:49:56;;;;;;;6.20;2.38;;;;;;;-1.45;100.00;100411.75;5061693;28;20132;-73
2023/12/03 04:52:23;;;;;;;7.03;2.60;;;;;;;-1.32;100.00;100412.69;5055496;28;20053;-71
2023/12/03 04:54:50;;;;;;;6.20;2.60;;;;;;;-1.38;100.00;100395.53;5058571;28;20506;-70
2023/12/03 04:57:16;;;;;;;6.10;2.20;;;;;;;-1.29;100.00;100413.56;5054330;28;20088;-71
2023/12/03 04:59:43;;;;;;;4.53;1.95;;;;;;;-1.30;100.00;100411.84;5052412;28;20057;-71
2023/12/03 05:02:09;;;;;;;7.38;2.90;;;;;;;-1.36;100.00;100419.53;5045766;28;20049;-71
2023/12/03 05:04:36;;;;;;;5.43;2.13;;;;;;;-1.50;100.00;100386.06;5051494;28;20120;-71
2023/12/03 05:07:03;;;;;;;5.75;2.20;;;;;;;-1.43;100.00;100399.78;5055042;28;20049;-72
2023/12/03 05:09:30;;;;;;;6.60;2.80;;;;;;;-1.43;100.00;100423.75;5055052;28;20049;-71
2023/12/03 05:11:56;;;;;;;5.43;2.20;;;;;;;-1.43;100.00;100408.34;5053916;28;20118;-71
2023/12/03 05:14:23;;;;;;;5.32;2.28;;;;;;;-1.24;100.00;100417.03;5051087;28;20051;-71
2023/12/03 05:16:49;;;;;;;5.80;2.25;;;;;;;-1.27;100.00;100427.28;5059117;28;20513;-71
2023/12/03 05:19:16;;;;;;;6.95;2.65;;;;;;;-1.33;100.00;100419.53;5053805;28;20055;-70
2023/12/03 05:21:43;;;;;;;6.55;2.50;;;;;;;-1.31;100.00;100429.81;5051930;28;20041;-71
2023/12/03 05:24:10;;;;;;;8.73;3.03;;;;;;;-1.45;100.00;100410.06;5041255;28;20485;-71
2023/12/03 05:26:36;;;;;;;6.72;2.75;;;;;;;-1.51;100.00;100427.13;5050789;28;20139;-72
2023/12/03 05:29:03;;;;;;;7.78;2.45;;;;;;;-1.50;100.00;100423.72;5051948;28;20065;-71
2023/12/03 05:31:29;;;;;;;5.28;2.50;;;;;;;-1.50;100.00;100418.59;5041892;28;20057;-70
2023/12/03 05:33:56;;;;;;;6.20;2.63;;;;;;;-1.51;100.00;100427.97;5049583;28;20044;-70
2023/12/03 05:36:23;;;;;;;4.28;1.88;;;;;;;-1.43;100.00;100426.31;5049513;28;20060;-70
2023/12/03 05:38:54;;;;;;;6.80;2.50;;;;;;;-1.46;100.00;100423.72;5048261;28;20120;-70
2023/12/03 05:41:20;;;;;;;5.03;2.05;;;;;;;-1.44;100.00;100424.59;5052164;28;20139;-70
2023/12/03 05:43:48;;;;;;;5.88;2.08;;;;;;;-1.46;100.00;100420.31;5049513;28;20407;-71
2023/12/03 05:46:14;;;;;;;6.65;2.58;;;;;;;-1.64;100.00;100379.97;5050523;28;20048;-71
2023/12/03 05:48:42;;;;;;;4.90;1.90;;;;;;;-1.37;100.00;100408.38;5040616;28;20136;-71
2023/12/03 05:51:10;;;;;;;5.22;2.13;;;;;;;-1.20;100.00;100416.19;5049974;28;20113;-72
2023/12/03 05:53:37;;;;;;;5.82;2.28;;;;;;;-1.23;100.00;100410.19;5054006;28;20060;-71
2023/12/03 05:56:04;;;;;;;4.47;2.00;;;;;;;-1.25;100.00;100407.59;5050597;28;20060;-71
2023/12/03 05:58:31;;;;;;;6.18;2.20;;;;;;;-1.19;100.00;100414.47;5051359;28;20051;-71
2023/12/03 06:00:58;;;;;;;4.50;1.75;;;;;;;-1.12;100.00;100408.50;5053501;28;20052;-71
2023/12/03 06:03:24;;;;;;;4.57;1.85;;;;;;;-1.06;100.00;100417.94;5052951;28;20057;-71
2023/12/03 06:05:51;;;;;;;4.50;2.05;;;;;;;-1.10;100.00;100408.53;5056539;28;20045;-71
2023/12/03 06:08:18;;;;;;;5.68;2.28;;;;;;;-1.07;100.00;100411.97;5045917;28;20490;-71
2023/12/03 06:10:45;;;;;;;5.25;2.03;;;;;;;-1.04;100.00;100417.13;5053382;28;20072;-71
2023/12/03 06:13:13;;;;;;;3.85;1.60;;;;;;;-0.92;100.00;100408.63;5038857;28;20517;-71
2023/12/03 06:15:40;;;;;;;4.90;1.98;;;;;;;-0.97;100.00;100411.16;5049688;28;20075;-71
2023/12/03 06:18:08;;;;;;;5.45;2.00;;;;;;;-0.92;100.00;100408.63;5051706;28;20057;-72
2023/12/03 06:20:34;;;;;;;3.25;1.40;;;;;;;-0.87;100.00;100411.19;5036252;28;20045;-71
2023/12/03 06:23:01;;;;;;;6.03;1.95;;;;;;;-0.90;100.00;100409.47;5052686;28;20056;-71
2023/12/03 06:25:28;;;;;;;3.88;1.63;;;;;;;-0.90;100.00;100399.19;5049134;28;20080;-71
2023/12/03 06:27:54;;;;;;;4.75;1.88;;;;;;;-0.78;100.00;100404.38;5040793;28;20476;-71
2023/12/03 06:30:21;;;;;;;4.70;1.77;;;;;;;-0.78;100.00;100412.09;5043038;28;20085;-72
2023/12/03 06:32:48;;;;;;;4.53;1.85;;;;;;;-0.80;100.00;100411.25;5051918;28;20137;-71
2023/12/03 06:35:15;;;;;;;4.25;1.83;;;;;;;-0.81;100.00;100409.50;5037685;28;20475;-71
2023/12/03 06:37:43;;;;;;;6.32;2.30;;;;;;;-0.84;100.00;100422.34;5050825;28;20075;-71
2023/12/03 06:40:10;;;;;;;6.47;2.05;;;;;;;-0.91;100.00;100419.75;5047073;28;20494;-71
2023/12/03 06:42:37;;;;;;;12.57;3.00;;;;;;;-0.97;100.00;100433.44;5055393;28;20063;-71
2023/12/03 06:45:04;;;;;;;7.13;2.63;;;;;;;-0.99;100.00;100425.72;5049551;28;20502;-71
2023/12/03 06:47:31;;;;;;;6.28;2.25;;;;;;;-0.99;100.00;100423.16;5062914;28;20077;-71
2023/12/03 06:49:58;;;;;;;7.80;2.65;;;;;;;-1.00;100.00;100425.72;5052732;28;20057;-71
2023/12/03 06:52:24;;;;;;;7.40;2.60;;;;;;;-1.05;100.00;100430.81;5060885;28;20057;-71
2023/12/03 06:54:51;;;;;;;7.63;3.15;;;;;;;-0.98;100.00;100426.56;5059818;28;20075;-71
2023/12/03 06:57:18;;;;;;;5.90;2.45;;;;;;;-0.91;100.00;100418.03;5056360;28;20140;-71
2023/12/03 06:59:44;;;;;;;3.78;1.80;;;;;;;-0.95;100.00;100421.44;5049827;28;20045;-71
2023/12/03 07:02:11;;;;;;;4.82;2.08;;;;;;;-0.93;100.00;100419.75;5076962;28;20052;-71
2023/12/03 07:04:38;;;;;;;5.85;1.98;;;;;;;-0.97;100.00;100421.44;5047289;28;20049;-71
2023/12/03 07:07:05;;;;;;;3.35;1.50;;;;;;;-1.01;100.00;100423.97;5063902;28;20044;-71
2023/12/03 07:09:32;;;;;;;4.72;1.98;;;;;;;-0.93;100.00;100424.03;5043258;28;20064;-71
2023/12/03 07:12:06;;;;;;;4.50;1.95;;;;;;;-1.11;100.00;100414.53;5068901;28;20052;-70
2023/12/03 07:14:33;;;;;;;5.95;1.90;;;;;;;-1.03;100.00;100415.41;5052164;28;20114;-70
2023/12/03 07:17:00;;;;;;;3.75;1.60;;;;;;;-1.00;100.00;100420.56;5056771;28;20098;-71
2023/12/03 07:19:27;;;;;;;5.38;2.20;;;;;;;-1.06;100.00;100410.25;5065805;28;20052;-72
2023/12/03 07:21:53;;;;;;;4.78;1.88;;;;;;;-1.11;100.00;100420.53;5050282;28;20166;-72
2023/12/03 07:24:21;;;;;;;4.63;1.88;;;;;;;-1.22;100.00;100420.47;5052040;28;20053;-71
2023/12/03 07:26:48;;;;;;;5.40;1.95;;;;;;;-1.17;100.00;100429.06;5054420;28;20052;-72
2023/12/03 07:29:17;;;;;;;5.07;1.95;;;;;;;-1.18;100.00;100423.91;5069360;28;20052;-71
2023/12/03 07:31:44;;;;;;;6.93;2.85;;;;;;;-1.15;100.00;100426.50;5059750;28;20045;-71
2023/12/03 07:34:11;;;;;;;3.75;1.60;;;;;;;-1.16;100.00;100422.19;5047251;28;20051;-71
2023/12/03 07:36:38;;;;;;;5.03;1.83;;;;;;;-1.19;100.00;100427.31;5039215;28;20053;-71
2023/12/03 07:39:04;;;;;;;4.70;1.83;;;;;;;-1.29;100.00;100423.84;5047403;28;20136;-71
2023/12/03 07:41:31;;;;;;;4.72;1.80;;;;;;;-1.35;100.00;100429.81;5044459;28;20064;-72
2023/12/03 07:43:58;;;;;;;4.20;1.80;;;;;;;-1.36;100.00;100435.78;5043057;28;20041;-71
2023/12/03 07:46:24;;;;;;;4.50;1.63;;;;;;;-1.35;100.00;100419.53;5049206;28;20487;-72
2023/12/03 07:48:51;;;;;;;4.45;1.50;;;;;;;-1.35;100.00;100423.78;5049378;28;20056;-72
2023/12/03 07:51:18;;;;;;;5.15;1.80;;;;;;;-1.28;100.00;100435.81;5048495;28;20422;-72
2023/12/03 07:53:44;;;;;;;6.57;2.50;;;;;;;-1.45;100.00;100424.59;5046382;28;20823;-72
2023/12/03 07:56:11;;;;;;;6.82;2.53;;;;;;;-1.36;100.00;100445.22;5054140;28;20049;-72
2023/12/03 07:58:38;;;;;;;5.25;2.03;;;;;;;-1.39;100.00;100435.75;5049109;28;20590;-71
2023/12/03 08:01:05;;;;;;;8.10;3.08;;;;;;;-1.29;100.00;100444.41;5048622;28;20057;-72
2023/12/03 08:03:32;;;;;;;8.00;2.30;;;;;;;-1.34;100.00;100435.81;5045152;28;20091;-71
2023/12/03 08:05:59;;;;;;;6.00;2.22;;;;;;;-1.25;100.00;100437.56;5040231;28;20048;-71
2023/12/03 08:08:26;;;;;;;6.85;2.65;;;;;;;-1.16;100.00;100435.91;5042199;28;20049;-71
2023/12/03 08:10:52;;;;;;;6.68;2.47;;;;;;;-1.20;100.00;100447.00;5044835;28;20045;-72
2023/12/03 08:13:19;;;;;;;5.05;2.17;;;;;;;-1.23;100.00;100441.00;5046007;28;20356;-71
2023/12/03 08:15:46;;;;;;;4.32;1.70;;;;;;;-1.23;100.00;100446.13;5041140;28;20051;-71
2023/12/03 08:18:13;;;;;;;4.80;1.65;;;;;;;-1.17;100.00;100446.16;5044533;28;20471;-71
2023/12/03 08:20:40;;;;;;;5.63;2.30;;;;;;;-1.35;100.00;100447.78;5047918;28;20833;-72
2023/12/03 08:23:06;;;;;;;5.20;1.85;;;;;;;-1.42;100.00;100443.44;5042558;28;20052;-71
2023/12/03 08:25:33;;;;;;;5.55;2.35;;;;;;;-1.31;100.00;100440.97;5036467;28;20233;-72
2023/12/03 08:28:00;;;;;;;4.65;1.77;;;;;;;-1.31;100.00;100448.69;5048567;28;20060;-71
2023/12/03 08:30:26;;;;;;;3.78;1.70;;;;;;;-1.24;100.00;100446.97;5037768;28;20060;-71
2023/12/03 08:32:53;;;;;;;4.38;1.95;;;;;;;-1.21;100.00;100455.56;5040446;28;20084;-71
2023/12/03 08:35:20;;;;;;;5.30;1.98;;;;;;;-1.18;100.00;100458.16;5044407;28;20037;-71
2023/12/03 08:37:48;;;;;;;3.58;1.52;;;;;;;-1.17;100.00;100462.47;5042837;28;20041;-72
2023/12/03 08:40:15;;;;;;;4.32;1.75;;;;;;;-1.25;100.00;100463.25;5053314;28;20064;-71
2023/12/03 08:42:44;;;;;;;5.75;2.42;;;;;;;-1.28;100.00;100458.94;5048854;28;20053;-71
2023/12/03 08:45:11;;;;;;;5.90;2.10;;;;;;;-1.34;100.00;100439.22;5046556;28;20403;-71
2023/12/03 08:47:38;;;;;;;4.90;2.13;;;;;;;-1.26;100.00;100451.25;5045856;28;20045;-71
2023/12/03 08:50:05;;;;;;;3.65;1.58;;;;;;;-1.13;100.00;100453.06;5046747;28;20040;-71
2023/12/03 08:52:32;;;;;;;5.68;1.70;;;;;;;-1.05;100.00;100459.06;5047410;28;20486;-71
2023/12/03 08:55:00;;;;;;;5.47;2.03;;;;;;;-0.90;100.00;100472.84;5047090;28;20052;-71
2023/12/03 08:57:27;;;;;;;7.82;2.58;;;;;;;-0.99;100.00;100482.25;5048349;28;20567;-71
2023/12/03 08:59:54;;;;;;;4.93;2.03;;;;;;;-0.92;100.00;100472.88;5042835;28;20045;-71
2023/12/03 09:02:21;;;;;;;5.47;2.13;;;;;;;-0.75;100.00;100474.66;5047863;28;20061;-71
2023/12/03 09:04:47;;;;;;;3.42;1.60;;;;;;;-0.72;100.00;100465.25;5041486;28;20041;-71
2023/12/03 09:07:14;;;;;;;5.55;1.83;;;;;;;-0.65;100.00;100474.72;5042802;28;20060;-71
2023/12/03 09:09:42;;;;;;;7.43;2.45;;;;;;;-0.80;100.00;100479.78;5050487;28;20407;-70
2023/12/03 09:12:09;;;;;;;5.18;1.77;;;;;;;-0.69;100.00;100475.56;5043026;28;20083;-71
2023/12/03 09:14:36;;;;;;;10.20;3.55;;;;;;;-0.72;100.00;100474.69;5037833;28;20041;-71
2023/12/03 09:17:04;;;;;;;5.93;2.20;;;;;;;-0.67;100.00;100471.28;5051722;28;20049;-71
2023/12/03 09:19:30;;;;;;;10.73;3.22;;;;;;;-0.77;100.00;100472.06;5048141;28;20079;-70
2023/12/03 09:21:57;;;;;;;8.32;3.13;;;;;;;-0.80;100.00;100464.34;5051261;28;20044;-71
2023/12/03 09:24:24;;;;;;;9.35;3.28;;;;;;;-0.72;100.00;100469.53;5050215;28;20068;-71
2023/12/03 09:26:50;;;;;;;11.25;3.45;;;;;;;-0.71;100.00;100468.66;5046700;28;20056;-71
2023/12/03 09:29:17;;;;;;;8.20;2.85;;;;;;;-0.68;100.00;100479.81;5048500;28;20420;-71
2023/12/03 09:31:44;;;;;;;10.13;3.15;;;;;;;-0.73;100.00;100473.81;5046690;28;20136;-70
2023/12/03 09:34:11;;;;;;;9.55;3.00;;;;;;;-0.80;100.00;100483.22;5040908;28;20060;-71
2023/12/03 09:36:37;;;;;;;10.95;3.67;;;;;;;-0.81;100.00;100486.63;5045381;28;20052;-71
2023/12/03 09:39:07;;;;;;;9.88;3.85;;;;;;;-0.84;100.00;100481.47;5041609;28;20087;-71
2023/12/03 09:41:41;;;;;;;12.60;3.60;;;;;;;-0.84;100.00;100483.19;5050482;28;20067;-71
2023/12/03 09:44:16;;;;;;;7.75;2.97;;;;;;;-0.83;100.00;100493.47;5048655;28;20071;-71
2023/12/03 09:46:45;;;;;;;5.18;2.00;;;;;;;-0.67;100.00;100491.00;5050784;28;20071;-71
2023/12/03 09:49:14;;;;;;;7.28;2.20;;;;;;;-0.56;100.00;100486.75;5051110;28;20059;-71
2023/12/03 09:51:41;;;;;;;6.07;2.47;;;;;;;-0.61;100.00;100478.16;5050519;28;20848;-71
2023/12/03 09:54:09;;;;;;;4.45;1.98;;;;;;;-0.45;100.00;100489.34;5042978;28;20052;-71
2023/12/03 09:56:39;;;;;;;6.05;2.25;;;;;;;-0.53;100.00;100486.75;5049857;28;20148;-71
2023/12/03 09:59:08;;;;;;;7.45;2.40;;;;;;;-0.52;100.00;100482.47;5048471;28;20048;-71
2023/12/03 10:01:38;;;;;;;4.82;2.00;;;;;;;-0.46;100.00;100491.06;5045796;28;20049;-71
2023/12/03 10:04:05;;;;;;;5.07;2.10;;;;;;;-0.44;100.00;100493.66;5034427;28;20050;-72
2023/12/03 10:06:34;;;;;;;4.93;2.10;;;;;;;-0.44;100.00;100493.66;5037559;28;20343;-71
2023/12/03 10:09:03;;;;;;;6.82;2.45;;;;;;;-0.46;100.00;100501.38;5050255;28;20049;-72
2023/12/03 10:11:39;;;;;;;2.92;1.60;;;;;;;-0.44;100.00;100499.66;5049969;28;20144;-71
2023/12/03 10:14:10;;;;;;;3.33;1.60;;;;;;;-0.29;100.00;100506.53;5044130;28;20479;-71
2023/12/03 10:16:37;;;;;;;4.78;2.17;;;;;;;-0.25;100.00;100507.41;5037233;28;20049;-71
2023/12/03 10:19:03;;;;;;;4.78;1.90;;;;;;;-0.11;100.00;100504.88;5043683;28;20057;-72
2023/12/03 10:21:31;;;;;;;4.25;1.90;;;;;;;-0.09;100.00;100498.91;5047629;28;20510;-72
2023/12/03 10:23:59;;;;;;;5.43;2.30;;;;;;;-0.03;100.00;100506.63;5037946;28;20136;-71
2023/12/03 10:26:25;;;;;;;4.70;2.00;;;;;;;0.07;100.00;100494.63;5049189;28;20051;-71
2023/12/03 10:28:53;;;;;;;4.82;2.05;;;;;;;0.30;100.00;100497.25;5050592;28;20522;-71
2023/12/03 10:31:19;;;;;;;4.88;2.03;;;;;;;0.47;100.00;100497.22;5050566;28;20183;-71
2023/12/03 10:33:46;;;;;;;6.78;2.70;;;;;;;0.52;100.00;100486.94;5045963;28;20064;-71
2023/12/03 10:36:13;;;;;;;5.50;1.90;;;;;;;0.63;100.00;100480.03;5049520;28;20529;-71
2023/12/03 10:38:41;;;;;;;5.40;1.80;;;;;;;0.84;100.00;100491.19;5046244;28;20045;-71
2023/12/03 10:41:10;;;;;;;3.10;1.50;;;;;;;0.91;100.00;100477.44;5049122;28;20052;-71
2023/12/03 10:43:39;;;;;;;3.10;1.42;;;;;;;1.05;100.00;100474.84;5047458;28;20386;-71
2023/12/03 10:46:13;;;;;;;5.57;2.20;;;;;;;1.16;100.00;100487.69;5048964;28;20063;-71
2023/12/03 10:48:39;;;;;;;4.28;1.80;;;;;;;1.00;100.00;100450.78;5049737;28;20759;-71
2023/12/03 10:51:08;;;;;;;4.35;1.70;;;;;;;1.24;100.00;100478.19;5051785;28;20052;-71
2023/12/03 10:53:37;;;;;;;5.63;1.50;;;;;;;1.18;100.00;100470.47;5045730;28;20060;-71
2023/12/03 10:56:05;;;;;;;3.85;1.80;;;;;;;1.04;100.00;100470.53;5040868;28;20242;-71
2023/12/03 10:58:40;;;;;;;4.47;1.83;;;;;;;0.96;100.00;100478.28;5042967;28;20059;-71
2023/12/03 11:01:12;;;;;;;3.70;1.50;;;;;;;0.85;100.00;100480.00;5049244;28;20376;-71
2023/12/03 11:03:45;;;;;;;5.77;2.30;;;;;;;0.80;100.00;100476.56;5045663;28;20479;-71
2023/12/03 11:06:14;;;;;;;7.03;2.67;;;;;;;0.62;100.00;100449.13;5047856;28;20273;-71
2023/12/03 11:08:41;;;;;;;5.32;2.08;;;;;;;0.70;100.00;100466.28;5044927;28;20057;-71
2023/12/03 11:11:11;;;;;;;7.90;2.80;;;;;;;0.62;100.00;100474.88;5036724;28;20479;-72
2023/12/03 11:13:39;;;;;;;9.30;3.38;;;;;;;0.61;100.00;100463.72;5045201;28;20507;-72
2023/12/03 11:16:14;;;;;;;10.55;4.22;;;;;;;0.63;100.00;100464.59;5048828;28;20064;-72